Time;durP1;ratioP1;P1;durP2;ratioP2;P2;SDS_P1;SDS_P2;PMS_P1;PMS_P2;Temp;Humidity;BMP_temperature;BMP_pressure;BME280_temperature;BME280_humidity;BME280_pressure;Samples;Min_cycle;Max_cycle;Signal;HPM_P1;HPM_P2
2022/05/07 00:00:39;;;;;;;18.20;16.42;;;;;;;11.80;66.04;101018.88;5074767;28;20048;-53
2022/05/07 00:03:07;;;;;;;16.25;14.68;;;;;;;11.76;65.88;101009.47;5074742;28;20056;-55
2022/05/07 00:05:34;;;;;;;16.65;15.05;;;;;;;11.75;65.85;101019.78;5073229;28;20055;-54
2022/05/07 00:08:03;;;;;;;15.45;13.85;;;;;;;11.73;65.78;101008.09;5074279;28;20378;-53
2022/05/07 00:10:31;;;;;;;15.73;14.13;;;;;;;11.73;65.86;101012.84;5074254;28;20413;-55
2022/05/07 00:12:58;;;;;;;15.95;14.35;;;;;;;11.69;66.03;101007.06;5074421;28;20061;-50
2022/05/07 00:15:26;;;;;;;15.82;14.13;;;;;;;11.65;65.93;101008.81;5074570;28;20057;-53
2022/05/07 00:18:05;;;;;;;16.33;14.73;;;;;;;11.63;65.88;101002.69;5074794;28;20067;-52
2022/05/07 00:20:35;;;;;;;16.13;14.60;;;;;;;11.58;66.37;101009.22;5073232;28;20056;-52
2022/05/07 00:23:03;;;;;;;17.73;15.82;;;;;;;11.57;66.62;101007.56;5074223;28;20470;-52
2022/05/07 00:25:32;;;;;;;17.17;15.48;;;;;;;11.54;66.67;101007.34;5074187;28;20389;-52
2022/05/07 00:27:59;;;;;;;17.00;15.30;;;;;;;11.52;66.74;101004.03;5074213;28;20061;-52
2022/05/07 00:30:26;;;;;;;15.27;13.70;;;;;;;11.47;66.31;101007.75;5074592;28;20052;-51
2022/05/07 00:32:55;;;;;;;15.23;13.63;;;;;;;11.47;66.55;100998.56;5073113;28;20064;-53
2022/05/07 00:35:22;;;;;;;15.52;13.77;;;;;;;11.43;66.46;101000.31;5074338;28;20049;-54
2022/05/07 00:37:50;;;;;;;16.77;14.82;;;;;;;11.41;66.78;101000.63;5073998;28;20068;-53
2022/05/07 00:40:17;;;;;;;17.80;15.85;;;;;;;11.34;66.82;101001.03;5073618;28;20499;-55
2022/05/07 00:42:45;;;;;;;16.05;14.40;;;;;;;11.31;67.13;100993.25;5073180;28;20059;-52
2022/05/07 00:45:12;;;;;;;15.77;14.07;;;;;;;11.33;67.42;101004.94;5074278;28;20052;-52
2022/05/07 00:47:41;;;;;;;15.35;13.70;;;;;;;11.33;67.04;100999.34;5074193;28;20385;-51
2022/05/07 00:52:55;;;;;;;15.45;13.85;;;;;;;11.30;67.29;100999.97;5079380;28;20480;-55
2022/05/07 00:55:26;;;;;;;18.73;14.65;;;;;;;11.30;67.01;100999.16;5072730;28;20056;-52
2022/05/07 00:57:55;;;;;;;15.95;14.10;;;;;;;11.21;67.09;101004.59;5073706;28;20044;-56
2022/05/07 01:00:23;;;;;;;16.45;14.73;;;;;;;11.11;67.67;100999.22;5073842;28;20358;-51
2022/05/07 01:02:50;;;;;;;16.20;14.48;;;;;;;11.12;67.17;100998.06;5073379;28;20060;-54
2022/05/07 01:05:19;;;;;;;15.65;13.95;;;;;;;11.16;67.14;100993.53;5073494;28;20057;-51
2022/05/07 01:07:47;;;;;;;15.43;13.80;;;;;;;11.14;67.31;100991.03;5073474;28;20059;-55
2022/05/07 01:10:17;;;;;;;16.67;14.60;;;;;;;11.11;67.47;100991.66;5072544;28;20443;-52
2022/05/07 01:12:45;;;;;;;17.48;15.07;;;;;;;11.11;67.69;100996.44;5073278;28;20049;-53
2022/05/07 01:15:12;;;;;;;16.63;15.02;;;;;;;11.09;67.81;100998.69;5073453;28;20059;-53
2022/05/07 01:17:40;;;;;;;14.65;13.10;;;;;;;11.10;67.54;100991.97;5073289;28;20520;-52
2022/05/07 01:20:11;;;;;;;16.30;14.73;;;;;;;11.09;67.64;100993.13;5073374;28;20052;-51
2022/05/07 01:22:40;;;;;;;20.75;16.90;;;;;;;11.07;67.89;100993.41;5072808;28;20063;-52
2022/05/07 01:25:08;;;;;;;16.77;15.18;;;;;;;11.08;67.94;100986.69;5072785;28;20063;-51
2022/05/07 01:27:35;;;;;;;16.42;14.68;;;;;;;11.06;68.30;100986.16;5073146;28;20055;-52
2022/05/07 01:30:06;;;;;;;17.27;15.48;;;;;;;11.03;67.88;100989.59;5073269;28;20064;-52
2022/05/07 01:32:33;;;;;;;20.33;18.30;;;;;;;11.04;68.12;100985.66;5071026;28;20056;-52
2022/05/07 01:35:00;;;;;;;18.67;16.77;;;;;;;11.04;68.30;100984.81;5073572;28;20064;-54
2022/05/07 01:37:29;;;;;;;19.83;15.45;;;;;;;11.04;68.11;100982.03;5073159;28;20063;-57
2022/05/07 01:39:58;;;;;;;20.35;18.17;;;;;;;11.02;68.01;100978.72;5071358;28;20144;-50
2022/05/07 01:42:25;;;;;;;17.45;15.63;;;;;;;11.01;68.21;100979.88;5073195;28;20064;-52
2022/05/07 01:44:53;;;;;;;18.55;16.85;;;;;;;11.00;68.21;100978.19;5072601;28;20511;-50
2022/05/07 01:50:06;;;;;;;17.88;16.08;;;;;;;11.03;68.72;100983.19;5074289;28;20059;-54
2022/05/07 01:52:34;;;;;;;17.67;15.93;;;;;;;11.10;68.35;100969.66;5072858;28;20401;-51
2022/05/07 01:55:04;;;;;;;17.30;15.60;;;;;;;11.16;68.27;100977.63;5071301;28;20843;-54
2022/05/07 01:57:35;;;;;;;15.80;14.20;;;;;;;11.24;67.71;100983.66;5072599;28;20480;-51
2022/05/07 02:00:02;;;;;;;16.27;14.77;;;;;;;11.25;67.43;100974.13;5072390;28;20118;-50
2022/05/07 02:02:30;;;;;;;17.95;16.23;;;;;;;11.22;67.69;100967.22;5072607;28;20049;-52
2022/05/07 02:04:59;;;;;;;16.40;14.75;;;;;;;11.24;67.40;100962.16;5071810;28;20049;-52
2022/05/07 02:07:27;;;;;;;16.95;15.35;;;;;;;11.23;67.25;100963.28;5072508;28;20060;-50
2022/05/07 02:09:54;;;;;;;18.20;16.40;;;;;;;11.20;67.35;100972.28;5071664;28;20771;-55
2022/05/07 02:12:23;;;;;;;16.80;15.15;;;;;;;11.21;67.36;100968.34;5072668;28;20056;-52
2022/05/07 02:14:50;;;;;;;20.08;16.88;;;;;;;11.20;67.43;100965.88;5071746;28;20413;-54
2022/05/07 02:17:18;;;;;;;17.83;15.90;;;;;;;11.13;67.75;100963.50;5072411;28;20079;-54
2022/05/07 02:19:48;;;;;;;17.25;15.45;;;;;;;11.12;67.93;100975.75;5070770;28;20060;-51
2022/05/07 02:22:18;;;;;;;18.73;16.85;;;;;;;11.08;67.74;100969.97;5072548;28;20056;-52
2022/05/07 02:24:46;;;;;;;17.85;16.05;;;;;;;11.07;67.81;100967.50;5072245;28;20056;-52
2022/05/07 02:27:13;;;;;;;17.17;15.48;;;;;;;11.05;67.75;100964.19;5071708;28;20075;-53
2022/05/07 02:29:42;;;;;;;18.95;15.57;;;;;;;11.01;67.70;100958.41;5071694;28;20448;-52
2022/05/07 02:32:13;;;;;;;16.52;14.82;;;;;;;11.01;67.37;100958.41;5071564;28;20055;-50
2022/05/07 02:34:41;;;;;;;16.42;14.82;;;;;;;10.97;68.08;100960.13;5072075;28;20063;-50
2022/05/07 02:37:09;;;;;;;17.33;15.65;;;;;;;10.90;67.99;100960.53;5072141;28;20046;-50
2022/05/07 02:39:36;;;;;;;18.23;16.42;;;;;;;10.89;68.09;100958.88;5071155;28;20488;-50
2022/05/07 02:44:51;;;;;;;17.70;15.95;;;;;;;10.86;68.14;100962.28;5077872;28;20417;-53
2022/05/07 02:47:18;;;;;;;16.05;14.45;;;;;;;10.85;68.44;100957.00;5072236;28;20056;-54
2022/05/07 02:49:45;;;;;;;18.05;16.25;;;;;;;10.83;68.50;100951.72;5071817;28;20059;-54
2022/05/07 02:52:12;;;;;;;16.88;15.27;;;;;;;10.83;68.23;100950.91;5072184;28;20056;-52
2022/05/07 02:54:40;;;;;;;17.50;15.05;;;;;;;10.73;68.39;100963.03;5070444;28;20060;-52
2022/05/07 02:57:07;;;;;;;16.70;15.00;;;;;;;10.73;67.96;100960.25;5072063;28;20063;-52
2022/05/07 02:59:34;;;;;;;16.38;14.77;;;;;;;10.70;68.13;100963.66;5071324;28;20052;-51
2022/05/07 03:02:04;;;;;;;16.73;15.10;;;;;;;10.70;68.01;100963.66;5071738;28;20413;-54
2022/05/07 03:04:31;;;;;;;17.25;15.55;;;;;;;10.64;67.95;100959.28;5072452;28;20064;-55
2022/05/07 03:06:58;;;;;;;16.15;14.50;;;;;;;10.65;67.91;100958.19;5078364;28;20060;-50
2022/05/07 03:09:27;;;;;;;17.02;15.30;;;;;;;10.63;67.98;100960.44;5078168;28;20067;-52
2022/05/07 03:11:54;;;;;;;17.65;15.95;;;;;;;10.57;68.46;100963.28;5078399;28;20060;-55
2022/05/07 03:14:25;;;;;;;16.90;15.20;;;;;;;10.56;68.22;100961.63;5078579;28;20053;-55
2022/05/07 03:16:52;;;;;;;17.27;15.20;;;;;;;10.56;68.07;100961.63;5078246;28;20059;-54
2022/05/07 03:19:21;;;;;;;17.85;15.95;;;;;;;10.56;68.07;100963.56;5077302;28;20052;-50
2022/05/07 03:21:48;;;;;;;16.63;14.73;;;;;;;10.51;68.05;100958.91;5077796;28;20060;-53
2022/05/07 03:24:16;;;;;;;17.75;15.77;;;;;;;10.49;68.04;100958.41;5078261;28;20053;-50
2022/05/07 03:26:46;;;;;;;17.20;15.40;;;;;;;10.46;68.30;100958.19;5078165;28;20385;-53
2022/05/07 03:29:14;;;;;;;17.45;15.75;;;;;;;10.41;68.77;100947.94;5078294;28;20488;-51
2022/05/07 03:31:41;;;;;;;18.20;16.30;;;;;;;10.42;68.66;100955.16;5076704;28;20044;-51
2022/05/07 03:34:09;;;;;;;17.40;15.70;;;;;;;10.38;68.64;100954.13;5078304;28;20067;-54
2022/05/07 03:36:38;;;;;;;18.38;16.58;;;;;;;10.38;68.63;100956.91;5078649;28;20053;-54
2022/05/07 03:39:06;;;;;;;18.20;16.35;;;;;;;10.35;68.92;100966.69;5078285;28;20056;-52
2022/05/07 03:41:33;;;;;;;18.50;16.45;;;;;;;10.35;68.91;100963.06;5078855;28;20079;-53
2022/05/07 03:44:01;;;;;;;18.98;17.08;;;;;;;10.34;69.24;100964.19;5078002;28;20080;-51
2022/05/07 03:46:29;;;;;;;18.98;17.08;;;;;;;10.35;68.96;100961.13;5077144;28;20075;-54
2022/05/07 03:48:56;;;;;;;17.88;16.15;;;;;;;10.33;69.08;100957.81;5077810;28;20059;-54
2022/05/07 03:51:24;;;;;;;19.08;17.13;;;;;;;10.34;69.14;100961.41;5078144;28;20422;-50
2022/05/07 03:53:52;;;;;;;18.98;17.13;;;;;;;10.36;69.25;100961.94;5077846;28;20048;-50
2022/05/07 03:56:22;;;;;;;20.73;18.63;;;;;;;10.36;68.99;100956.38;5077792;28;20056;-54
2022/05/07 03:58:49;;;;;;;19.25;17.30;;;;;;;10.36;69.20;100959.97;5077817;28;20063;-52
2022/05/07 04:01:17;;;;;;;22.05;18.95;;;;;;;10.38;69.33;100965.25;5078276;28;20400;-52
2022/05/07 04:03:44;;;;;;;20.90;18.38;;;;;;;10.38;69.31;100956.09;5077615;28;20052;-50
2022/05/07 04:06:16;;;;;;;19.33;16.55;;;;;;;10.42;68.96;100954.34;5077872;28;20060;-53
2022/05/07 04:08:45;;;;;;;18.88;16.98;;;;;;;10.44;68.54;100960.44;5078000;28;20413;-52
2022/05/07 04:11:14;;;;;;;19.70;16.90;;;;;;;10.45;68.67;100960.13;5077141;28;22302;-51
2022/05/07 04:13:41;;;;;;;17.90;16.17;;;;;;;10.46;68.57;100956.22;5078208;28;20056;-54
2022/05/07 04:16:08;;;;;;;19.02;17.10;;;;;;;10.49;68.42;100954.78;5076411;28;20069;-53
2022/05/07 04:18:36;;;;;;;17.95;16.05;;;;;;;10.52;68.44;100956.94;5074488;28;20064;-52
2022/05/07 04:21:04;;;;;;;18.10;16.27;;;;;;;10.52;68.73;100960.59;5074476;28;20071;-51
2022/05/07 04:23:31;;;;;;;20.42;16.95;;;;;;;10.59;68.10;100967.75;5074714;28;20067;-50
2022/05/07 04:25:58;;;;;;;19.58;17.48;;;;;;;10.60;68.25;100958.25;5073434;28;20064;-50
2022/05/07 04:28:30;;;;;;;19.75;17.67;;;;;;;10.63;68.27;100964.03;5073491;28;20065;-50
2022/05/07 04:30:58;;;;;;;18.13;16.15;;;;;;;10.66;68.33;100974.56;5073998;28;20472;-50
2022/05/07 04:33:26;;;;;;;19.85;16.55;;;;;;;10.69;68.36;100960.03;5089788;28;20056;-55
2022/05/07 04:35:55;;;;;;;17.23;15.57;;;;;;;10.74;68.53;100959.94;5092098;28;20074;-53
2022/05/07 04:38:23;;;;;;;18.10;16.20;;;;;;;10.82;68.18;100971.56;5074464;28;20063;-52
2022/05/07 04:40:50;;;;;;;18.00;16.20;;;;;;;10.90;68.17;100968.91;5073842;28;20053;-50
2022/05/07 04:43:21;;;;;;;18.02;16.23;;;;;;;10.96;67.88;100959.31;5073899;28;20052;-51
2022/05/07 04:45:49;;;;;;;17.35;15.70;;;;;;;11.01;67.95;100966.75;5073668;28;20057;-53
2022/05/07 04:48:17;;;;;;;18.40;16.55;;;;;;;11.09;68.04;100973.59;5074298;28;20057;-51
2022/05/07 04:50:44;;;;;;;17.92;15.98;;;;;;;11.20;67.75;100971.47;5073833;28;20061;-54
2022/05/07 04:53:12;;;;;;;18.48;16.58;;;;;;;11.24;67.31;100966.91;5073155;28;20055;-54
2022/05/07 04:55:39;;;;;;;20.08;17.95;;;;;;;11.30;67.20;100960.94;5073768;28;20076;-51
2022/05/07 04:58:07;;;;;;;17.20;15.45;;;;;;;11.36;67.15;100965.28;5073551;28;20061;-51
2022/05/07 05:00:34;;;;;;;17.90;16.15;;;;;;;11.44;66.92;100972.09;5073982;28;20079;-53
2022/05/07 05:03:03;;;;;;;16.73;14.93;;;;;;;11.52;66.74;100968.59;5073603;28;20049;-49
2022/05/07 05:05:30;;;;;;;18.30;16.47;;;;;;;11.51;66.41;100972.53;5073642;28;20082;-53
2022/05/07 05:07:58;;;;;;;16.70;14.93;;;;;;;11.66;66.24;100970.59;5072834;28;20516;-52
2022/05/07 05:10:26;;;;;;;18.13;16.23;;;;;;;11.77;66.40;100972.84;5073308;28;20068;-50
2022/05/07 05:12:53;;;;;;;17.25;15.52;;;;;;;11.89;65.79;100960.38;5073029;28;20057;-50
2022/05/07 05:15:20;;;;;;;15.75;14.15;;;;;;;12.04;65.67;100974.00;5073792;28;20063;-49
2022/05/07 05:17:48;;;;;;;17.15;15.38;;;;;;;12.13;65.55;100966.53;5073404;28;20048;-50
2022/05/07 05:20:17;;;;;;;16.50;14.90;;;;;;;12.25;65.24;100973.56;5071381;28;20071;-54
2022/05/07 05:22:48;;;;;;;16.07;14.57;;;;;;;12.36;64.95;100969.41;5073732;28;20386;-53
2022/05/07 05:25:16;;;;;;;16.60;14.98;;;;;;;12.43;65.01;100971.75;5073507;28;20921;-49
2022/05/07 05:27:43;;;;;;;16.67;15.07;;;;;;;12.56;64.63;100968.94;5072692;28;20519;-52
2022/05/07 05:30:12;;;;;;;17.05;15.45;;;;;;;12.66;64.39;100981.84;5072532;28;20064;-56
2022/05/07 05:32:39;;;;;;;20.63;16.92;;;;;;;12.79;63.88;100974.53;5072904;28;20049;-53
2022/05/07 05:35:07;;;;;;;16.58;14.93;;;;;;;12.82;63.72;100976.69;5072423;28;20460;-53
2022/05/07 05:37:36;;;;;;;15.98;14.50;;;;;;;12.94;63.58;100979.75;5072927;28;20067;-54
2022/05/07 05:40:07;;;;;;;17.10;15.45;;;;;;;13.05;63.33;100977.50;5072683;28;20052;-52
2022/05/07 05:42:34;;;;;;;16.98;15.32;;;;;;;13.15;63.54;100976.44;5073164;28;20060;-54
2022/05/07 05:45:02;;;;;;;15.45;13.85;;;;;;;13.27;63.38;100982.28;5072890;28;20052;-52
2022/05/07 05:47:29;;;;;;;15.23;13.73;;;;;;;13.37;62.89;100982.00;5072787;28;20413;-51
2022/05/07 05:49:57;;;;;;;15.80;14.20;;;;;;;13.49;62.43;100977.81;5071807;28;20053;-52
2022/05/07 05:52:27;;;;;;;15.82;14.20;;;;;;;13.55;61.96;100976.50;5072810;28;20053;-51
2022/05/07 05:54:56;;;;;;;15.80;14.20;;;;;;;13.65;62.04;100980.97;5072421;28;20052;-54
2022/05/07 05:57:23;;;;;;;17.10;15.23;;;;;;;13.74;61.94;100982.69;5072348;28;20063;-52
2022/05/07 05:59:51;;;;;;;16.95;15.35;;;;;;;13.88;61.72;100984.53;5072464;28;20059;-54
2022/05/07 06:02:18;;;;;;;18.20;16.40;;;;;;;13.94;61.24;100988.84;5072546;28;20071;-55
2022/05/07 06:04:46;;;;;;;17.27;15.48;;;;;;;14.06;60.69;100982.63;5071024;28;20488;-53
2022/05/07 06:07:13;;;;;;;14.90;13.40;;;;;;;14.20;60.81;100981.34;5070800;28;20052;-55
2022/05/07 06:09:40;;;;;;;16.50;14.90;;;;;;;14.33;60.41;100978.72;5068065;28;20052;-51
2022/05/07 06:12:10;;;;;;;17.08;15.43;;;;;;;14.41;59.98;100987.13;5072275;28;20060;-54
2022/05/07 06:14:37;;;;;;;17.50;15.88;;;;;;;14.58;60.27;100982.75;5071331;28;20064;-53
2022/05/07 06:17:05;;;;;;;17.48;14.43;;;;;;;14.71;59.71;100989.34;5071439;28;20064;-50
2022/05/07 06:19:32;;;;;;;15.95;14.20;;;;;;;14.82;59.40;100990.63;5070762;28;20063;-54
2022/05/07 06:21:59;;;;;;;15.38;13.77;;;;;;;14.96;59.39;100979.25;5071984;28;20052;-53
2022/05/07 06:27:31;;;;;;;15.20;13.65;;;;;;;15.36;60.58;100987.44;5073432;28;20056;-54
2022/05/07 06:29:59;;;;;;;17.23;14.23;;;;;;;15.52;59.80;100985.75;5072139;28;20063;-54
2022/05/07 06:32:32;;;;;;;21.63;16.30;;;;;;;15.78;58.93;100988.47;5072467;28;20079;-54
2022/05/07 06:35:00;;;;;;;28.00;18.08;;;;;;;15.92;57.62;100981.81;5070785;28;20052;-53
2022/05/07 06:37:27;;;;;;;21.13;16.48;;;;;;;16.07;57.08;100981.22;5072461;28;20071;-54
2022/05/07 06:39:54;;;;;;;18.90;15.75;;;;;;;16.20;56.53;100982.13;5069524;28;20052;-56
2022/05/07 06:42:23;;;;;;;28.60;19.58;;;;;;;16.33;56.16;100980.22;5071304;28;20055;-56
2022/05/07 06:44:50;;;;;;;21.77;16.15;;;;;;;16.53;55.35;100985.06;5072324;28;20052;-53
2022/05/07 06:47:18;;;;;;;19.48;15.80;;;;;;;16.83;55.08;100988.63;5071645;28;20063;-53
2022/05/07 06:49:45;;;;;;;23.05;16.40;;;;;;;17.10;54.39;100988.41;5071169;28;20056;-54
2022/05/07 06:52:13;;;;;;;16.65;14.52;;;;;;;17.48;52.90;100984.53;5070458;28;20489;-52
2022/05/07 06:54:40;;;;;;;18.00;16.10;;;;;;;17.70;52.07;100981.28;5070807;28;20056;-54
2022/05/07 06:57:08;;;;;;;16.13;14.43;;;;;;;17.96;51.85;100991.41;5071801;28;20128;-53
2022/05/07 06:59:37;;;;;;;16.08;14.50;;;;;;;18.20;51.35;100982.13;5070695;28;20396;-53
2022/05/07 07:02:05;;;;;;;14.88;12.88;;;;;;;18.37;50.86;100981.03;5064960;28;21285;-56
2022/05/07 07:04:35;;;;;;;15.05;13.55;;;;;;;18.55;50.40;100984.44;5071186;28;20071;-56
2022/05/07 07:07:02;;;;;;;14.57;13.10;;;;;;;18.58;51.01;100994.97;5071967;28;20400;-51
2022/05/07 07:09:30;;;;;;;15.57;13.88;;;;;;;18.65;51.22;100993.22;5071835;28;20059;-55
2022/05/07 07:11:59;;;;;;;16.05;14.45;;;;;;;18.79;50.53;100992.00;5071654;28;20056;-54
2022/05/07 07:14:26;;;;;;;;;;;;;;;18.85;50.21;100988.56;5072277;28;20078;-56
2022/05/07 07:16:55;;;;;;;14.45;13.05;;;;;;;18.94;49.60;100990.44;5068553;28;19932;-54
2022/05/07 07:19:23;;;;;;;15.77;14.20;;;;;;;19.12;49.17;100994.59;5063666;28;20063;-56
2022/05/07 07:21:51;;;;;;;14.35;13.05;;;;;;;19.38;49.45;100993.28;5071836;28;20056;-54
2022/05/07 07:24:19;;;;;;;15.20;13.80;;;;;;;19.63;48.79;100993.94;5070203;28;20059;-54
2022/05/07 07:26:46;;;;;;;15.45;13.95;;;;;;;19.92;48.06;100986.25;5070563;28;20060;-55
2022/05/07 07:29:13;;;;;;;14.95;13.45;;;;;;;20.24;47.80;100985.03;5071520;28;20056;-57
2022/05/07 07:31:40;;;;;;;13.30;12.05;;;;;;;20.70;46.75;100984.44;5071764;28;20060;-55
2022/05/07 07:34:09;;;;;;;14.88;13.55;;;;;;;21.24;45.20;100982.72;5071012;28;20072;-55
2022/05/07 07:36:37;;;;;;;14.77;12.70;;;;;;;21.67;44.34;100990.06;5068712;28;20064;-53
2022/05/07 07:39:07;;;;;;;13.35;12.02;;;;;;;22.28;43.41;100985.41;5071832;28;20056;-56
2022/05/07 07:41:35;;;;;;;15.02;13.43;;;;;;;22.89;42.41;100985.44;5071848;28;20057;-56
2022/05/07 07:44:02;;;;;;;12.90;11.15;;;;;;;23.49;40.78;100973.94;5070060;28;20056;-54
2022/05/07 07:49:16;;;;;;;11.52;10.43;;;;;;;24.91;38.56;100964.00;5074790;28;20063;-51
2022/05/07 07:51:46;;;;;;;11.40;10.23;;;;;;;25.58;36.22;100969.53;5073048;28;20060;-53
2022/05/07 07:54:14;;;;;;;12.43;11.02;;;;;;;26.14;35.06;100970.75;5079936;28;20044;-53
2022/05/07 07:59:09;;;;;;;14.45;11.95;;;;;;;26.86;34.02;100979.19;5083595;27;20617;-54
2022/05/07 08:01:36;;;;;;;14.00;12.60;;;;;;;26.99;33.49;100970.97;5069977;28;20055;-51
2022/05/07 08:04:05;;;;;;;13.98;12.35;;;;;;;27.12;32.69;100972.09;5068506;28;20127;-55
2022/05/07 08:06:33;;;;;;;14.97;12.67;;;;;;;27.46;32.30;100972.34;5068551;28;20044;-53
2022/05/07 08:11:47;;;;;;;18.10;14.05;;;;;;;28.06;31.26;100970.25;5076919;28;20079;-56
2022/05/07 08:14:16;;;;;;;15.52;14.02;;;;;;;28.57;30.05;100967.72;5068576;28;20059;-55
2022/05/07 08:16:44;;;;;;;16.42;14.40;;;;;;;28.59;30.42;100962.38;5068628;28;20045;-52
2022/05/07 08:19:13;;;;;;;14.57;13.20;;;;;;;29.14;30.01;100964.16;5068417;28;20048;-54
2022/05/07 08:21:40;;;;;;;17.10;14.38;;;;;;;29.78;28.83;100966.50;5068754;28;20057;-55
2022/05/07 08:24:08;;;;;;;13.73;12.32;;;;;;;30.46;28.17;100965.31;5068312;28;20052;-53
2022/05/07 08:26:35;;;;;;;12.70;11.40;;;;;;;31.07;27.15;100964.09;5077014;28;20053;-54
2022/05/07 08:29:03;;;;;;;14.98;13.40;;;;;;;31.52;27.55;100970.06;5077153;28;20058;-56
2022/05/07 08:31:32;;;;;;;12.82;11.50;;;;;;;32.30;26.34;100972.22;5088826;28;20052;-55
2022/05/07 08:33:59;;;;;;;14.23;12.88;;;;;;;33.09;25.49;100972.88;5070040;28;20055;-57
2022/05/07 08:36:27;;;;;;;13.98;12.30;;;;;;;33.79;23.94;100964.53;5066354;28;20353;-56
2022/05/07 08:38:54;;;;;;;13.98;12.57;;;;;;;34.63;23.25;100964.06;5068207;28;20056;-54
2022/05/07 08:41:22;;;;;;;13.20;11.90;;;;;;;35.20;22.17;100961.09;5065803;28;20063;-52
2022/05/07 08:43:50;;;;;;;12.88;11.57;;;;;;;35.86;20.66;100957.97;5068231;28;20057;-54
2022/05/07 08:46:19;;;;;;;14.00;12.70;;;;;;;36.11;19.65;100956.09;5052466;28;20052;-58
2022/05/07 08:48:50;;;;;;;14.25;12.82;;;;;;;37.04;19.20;100957.69;5068433;28;20052;-57
2022/05/07 08:51:20;;;;;;;13.35;11.70;;;;;;;37.43;18.75;100955.00;5063429;28;20052;-56
2022/05/07 08:53:49;;;;;;;13.98;12.38;;;;;;;38.21;18.50;100954.44;5065948;28;20045;-56
2022/05/07 08:56:18;;;;;;;13.27;11.98;;;;;;;39.02;17.11;100959.22;5069936;28;20052;-57
2022/05/07 08:58:49;;;;;;;12.15;10.90;;;;;;;39.79;15.72;100949.34;5081202;28;20048;-55
2022/05/07 09:01:17;;;;;;;11.75;10.55;;;;;;;40.68;15.09;100956.91;5065965;28;20052;-57
2022/05/07 09:03:46;;;;;;;12.05;10.77;;;;;;;41.37;14.99;100954.09;5068741;28;20052;-55
2022/05/07 09:06:20;;;;;;;12.07;10.93;;;;;;;41.45;15.02;100957.38;5068104;28;20052;-58
2022/05/07 09:08:48;;;;;;;11.57;10.48;;;;;;;42.35;14.47;100957.91;5064436;28;20452;-58
2022/05/07 09:11:18;;;;;;;11.68;10.63;;;;;;;43.09;13.58;100947.16;5054579;28;20495;-58
2022/05/07 09:13:46;;;;;;;11.85;10.52;;;;;;;43.45;12.98;100948.25;5060706;28;20410;-58
2022/05/07 09:16:14;;;;;;;12.57;11.38;;;;;;;43.62;12.69;100947.41;5052206;28;20068;-58
2022/05/07 09:18:48;;;;;;;10.95;9.95;;;;;;;43.80;12.74;100946.88;5054275;28;21762;-58
2022/05/07 09:21:20;;;;;;;12.55;11.35;;;;;;;43.17;13.07;100945.31;5068851;28;20063;-58
2022/05/07 09:24:00;;;;;;;12.70;11.60;;;;;;;44.05;12.75;100950.00;5075089;28;20056;-59
2022/05/07 09:26:32;;;;;;;13.95;12.55;;;;;;;44.07;12.55;100947.34;5064733;28;20143;-59
2022/05/07 09:29:00;;;;;;;13.02;11.80;;;;;;;44.23;11.68;100940.59;5074569;28;20059;-59
2022/05/07 09:31:29;;;;;;;14.05;12.52;;;;;;;44.69;12.69;100941.97;5074247;28;20063;-59
2022/05/07 09:35:47;;;;;;;15.07;13.73;;;;;;;44.87;11.62;100942.66;5074095;28;20087;-59
2022/05/07 09:36:44;;;;;;;13.20;12.00;;;;;;;44.97;11.88;100941.75;5074135;28;20068;-58
2022/05/07 09:39:16;;;;;;;14.80;13.30;;;;;;;44.74;11.32;100935.22;5074046;28;20052;-59
2022/05/07 09:41:46;;;;;;;13.35;12.05;;;;;;;44.52;11.89;100930.31;5055897;28;20060;-59
2022/05/07 09:44:14;;;;;;;13.60;12.43;;;;;;;44.73;11.67;100927.78;5053799;28;20068;-59
2022/05/07 09:46:41;;;;;;;;;;;;;;;44.63;11.31;100926.50;5054631;28;20056;-59
2022/05/07 09:49:10;;;;;;;15.05;13.75;;;;;;;44.05;11.45;100932.38;5053889;28;19927;-59
2022/05/07 09:51:38;;;;;;;14.00;12.68;;;;;;;44.76;11.14;100920.00;5058800;28;20049;-59
2022/05/07 09:59:39;;;;;;;14.57;13.02;;;;;;;43.53;12.40;100925.81;5057236;28;21579;-59
2022/05/07 10:02:17;;;;;;;18.27;16.63;;;;;;;43.35;12.47;100921.34;5052607;28;20045;-59
2022/05/07 10:05:03;;;;;;;13.65;11.63;;;;;;;42.35;12.70;100929.41;5052819;28;20053;-59
2022/05/07 10:07:41;;;;;;;14.07;12.77;;;;;;;41.18;13.40;100925.28;5053657;28;20051;-59
2022/05/07 10:10:22;;;;;;;;;;;;;;;39.77;14.66;100928.66;5054690;28;20061;-57
2022/05/07 10:12:54;;;;;;;16.60;15.18;;;;;;;39.63;15.42;100933.25;5071660;28;19943;-59
2022/05/07 10:15:25;;;;;;;15.82;14.23;;;;;;;40.30;15.70;100924.63;5073280;28;20053;-60
2022/05/07 10:18:00;;;;;;;14.32;13.02;;;;;;;40.39;14.39;100926.59;5073061;28;20052;-59
2022/05/07 10:20:38;;;;;;;16.17;14.77;;;;;;;40.53;14.31;100921.94;5072154;28;20056;-59
2022/05/07 10:23:08;;;;;;;12.52;11.43;;;;;;;40.22;14.71;100923.44;5073369;28;20048;-59
2022/05/07 10:25:35;;;;;;;10.80;9.73;;;;;;;39.26;15.69;100916.19;5073426;28;20492;-58
2022/05/07 10:28:14;;;;;;;12.63;11.40;;;;;;;38.21;15.88;100931.97;5068392;28;20044;-58
2022/05/07 10:30:51;;;;;;;12.10;10.98;;;;;;;36.94;16.71;100918.38;5072323;28;20052;-58
2022/05/07 10:33:20;;;;;;;14.20;12.80;;;;;;;35.93;17.82;100928.69;5073226;28;20052;-58
2022/05/07 10:35:49;;;;;;;13.27;11.98;;;;;;;34.72;19.29;100932.31;5073021;28;20407;-55
2022/05/07 10:38:26;;;;;;;12.07;10.88;;;;;;;33.67;19.89;100937.25;5073100;28;20052;-58
2022/05/07 10:40:54;;;;;;;13.73;12.43;;;;;;;32.81;20.58;100936.22;5073168;28;20049;-57
2022/05/07 10:43:32;;;;;;;15.55;14.05;;;;;;;31.93;21.95;100945.59;5072939;28;20400;-57
2022/05/07 10:46:04;;;;;;;14.07;12.37;;;;;;;31.20;22.97;100938.31;5054744;28;20056;-57
2022/05/07 10:48:43;;;;;;;15.90;14.30;;;;;;;30.47;24.15;100938.19;5072724;28;20053;-56
2022/05/07 10:51:18;;;;;;;13.82;11.73;;;;;;;29.69;24.49;100936.28;5072419;28;20386;-56
2022/05/07 10:53:45;;;;;;;12.55;11.20;;;;;;;28.93;24.34;100947.22;5070601;28;20068;-55
2022/05/07 10:56:17;;;;;;;14.00;10.75;;;;;;;28.59;25.31;100933.72;5057629;28;20435;-57
2022/05/07 10:58:51;;;;;;;12.18;10.93;;;;;;;28.34;26.18;100936.84;5071962;28;20162;-56
2022/05/07 11:01:22;;;;;;;11.40;10.30;;;;;;;28.17;27.44;100930.06;5072225;28;20385;-57
2022/05/07 11:04:00;;;;;;;14.77;13.25;;;;;;;27.96;27.11;100918.81;5071738;28;20048;-55
2022/05/07 11:06:28;;;;;;;13.82;12.20;;;;;;;27.97;28.05;100927.00;5072419;28;20052;-57
2022/05/07 11:08:56;;;;;;;12.02;10.73;;;;;;;28.04;29.18;100926.91;5072683;28;20052;-56
2022/05/07 11:11:24;;;;;;;12.75;11.52;;;;;;;27.97;28.71;100929.03;5066760;28;20056;-57
2022/05/07 11:13:55;;;;;;;12.27;10.82;;;;;;;27.95;28.58;100923.75;5072759;28;20139;-57
2022/05/07 11:16:24;;;;;;;11.30;10.13;;;;;;;27.84;29.60;100931.56;5072148;28;20056;-53
2022/05/07 11:18:53;;;;;;;13.50;11.85;;;;;;;26.82;34.66;100936.31;5066036;28;20059;-56
2022/05/07 11:21:21;;;;;;;18.63;15.98;;;;;;;26.54;33.89;100945.75;5064296;28;20052;-57
2022/05/07 11:24:01;;;;;;;19.13;16.02;;;;;;;26.00;35.17;100945.09;5072449;28;20048;-57
2022/05/07 11:26:28;;;;;;;;;;;;;;;25.36;36.70;100940.94;5076203;28;20120;-56
2022/05/07 11:28:57;;;;;;;22.73;19.65;;;;;;;25.10;35.66;100940.06;5071608;28;19921;-57
2022/05/07 11:31:28;;;;;;;19.88;17.80;;;;;;;24.84;36.71;100937.50;5072048;28;20052;-55
2022/05/07 11:34:03;;;;;;;17.00;14.88;;;;;;;24.75;36.54;100935.03;5067020;28;20041;-57
2022/05/07 11:36:31;;;;;;;17.20;15.40;;;;;;;25.07;36.70;100935.16;5048463;28;20500;-57
2022/05/07 11:38:59;;;;;;;17.70;15.90;;;;;;;24.86;36.12;100932.22;5068810;28;20492;-56
2022/05/07 11:41:27;;;;;;;15.85;14.02;;;;;;;24.81;36.41;100927.75;5060715;28;20411;-58